Tiempo atmosférico en la estación meteorológica de Villanueva Del Fresno, Badajoz (247 m.)



Fecha
DESCASC
Temp. máxima en grados centígrados (hora)
DESCASC
Temp. mínima en grados centígrados (hora)
DESCASC
Temp. media en grados centígrados
DESCASC
Racha de viento máxima en m/sg (hora)
DESCASC
Velocidad máxima media en intervalos de 10 minutos(hora)
DESCASC
Precipitaciones diarias en mm
DESCASC
Precipitaciones de 00:00 a 06:00 en mm
DESCASC
Precipitaciones de 06:00 a 12:00 en mm
DESCASC
Precipitaciones de 12:00 a 18:00 en mm
DESCASC
Precipitaciones de 18:00 a 24:00 en mm
DESCASC
22-01-2020 9.5 (12:20) 5.9 (06:00) 7.7 7.78 (17:10) 5.28 (17:10) 3.4 0 0 0.2 3.2
21-01-2020 11.9 (15:00) 5.4 (06:50) 8.6 12.22 (13:50) 8.61 (13:50) 0 0 0 0 0
20-01-2020 10.5 (14:20) 4.3 (09:10) 7.4 20.28 (15:30) 12.22 (15:40) 0 0 0 0 0
19-01-2020 13.4 (16:10) 6.4 (00:00) 9.9 16.94 (14:50) 11.39 (14:50) 0 0 0 0 0
18-01-2020 17.4 (16:10) 10.4 (00:00) 13.9 11.39 (09:20) 6.39 (08:40) 12.4 0.4 11.6 0.4 0
17-01-2020 16.3 (16:10) 10 (00:00) 13.1 6.11 (00:30) 3.89 (00:40) 0.2 0.2 0 0 0
16-01-2020 16.9 (15:50) 8.7 (00:00) 12.8 11.94 (15:30) 8.06 (14:30) 1.4 0 0 0 1.4
15-01-2020 16.2 (15:20) 10.1 (00:00) 13.2 11.94 (12:40) 7.78 (12:40) 0 0 0 0 0
14-01-2020 -- (--) -- (--) -- -- (--) -- (--) -- 0 0 -- 0
13-01-2020 13 (16:00) 0.8 (00:00) 6.9 5.83 (16:50) 3.33 (16:50) 0 0 0 0 0
12-01-2020 14.8 (15:30) 1.8 (00:00) 8.3 4.17 (21:30) 3.61 (21:40) 0 0 0 0 0
11-01-2020 15.3 (16:00) 4.4 (00:00) 9.9 6.11 (14:40) 4.44 (02:20) 0 0 0 0 0
10-01-2020 12.4 (16:30) 4.2 (00:00) 8.3 8.89 (12:50) 5.83 (16:40) 0 0 0 0 0
09-01-2020 14.3 (17:00) 2 (00:00) 8.2 4.17 (15:20) 2.5 (13:10) 0 0 0 0 0
08-01-2020 -- (--) -- (--) -- -- (--) -- (--) -- -- 0 0 0
07-01-2020 17 (17:10) 2.7 (00:00) 9.9 5.28 (19:20) 4.17 (19:20) 0 0 0 0 0
06-01-2020 15.9 (15:10) 3 (00:00) 9.4 5.83 (17:50) 3.89 (17:10) 0 0 0 0 0
05-01-2020 14.9 (14:10) 3.7 (00:00) 9.3 6.11 (08:20) 5.28 (08:20) 0 0 0 0 0
04-01-2020 14.8 (14:40) 4.8 (00:00) 9.8 7.78 (13:40) 5.28 (02:30) 0 0 0 0 0
03-01-2020 14.1 (15:20) 8.7 (00:00) 11.4 5.56 (14:30) 3.61 (02:20) 0 0 0 0 0
02-01-2020 13 (13:40) 3.2 (00:00) 8.1 4.17 (14:20) 3.33 (14:30) 0 0 0 0 0
01-01-2020 15.4 (16:20) 4.3 (00:00) 9.8 3.61 (13:30) 2.5 (15:00) 0 0 0 0 0
31-12-2019 15.9 (16:40) 3.7 (00:00) 9.8 3.89 (14:20) 2.5 (14:20) 0 0 0 0 0
30-12-2019 16.1 (16:50) 4.7 (00:00) 10.4 3.06 (19:40) 2.5 (19:40) 0 0 0 0 0
29-12-2019 18.7 (16:10) 6.8 (00:00) 12.8 4.44 (00:50) 3.33 (00:50) 0 0 0 0 0
28-12-2019 21.5 (15:10) 7.2 (00:00) 14.3 8.06 (19:50) 5.56 (19:50) 0 0 0 0 0
27-12-2019 19.7 (14:40) 8.7 (00:00) 14.2 6.94 (18:30) 5 (20:20) 0 0 0 0 0

Gráficas

Temp. máximas Temp. mínimas Temp. medias Precipitaciones Rachas de viento máximas Velocidades máximas media en intervalos de 10 minutos

Datos horarios

Fecha y hora oficial Temperatura (ºC) Velocidad del viento (km/h) Dirección del viento Racha (km/h) Dirección de racha Precipitación (mm) Presión (hPa) Tendencia (hPa) Humedad (%)
2020-01-25 23:00:00 7.6 0 Calma 2 Noroeste 0 -- -- 94
2020-01-25 22:00:00 7.9 0 Calma 4 Noroeste 0 -- -- 93
2020-01-25 21:00:00 8.8 0 Calma 8 Nordeste 0 -- -- 89
2020-01-25 20:00:00 10 6 Nordeste 12 Noroeste 0 -- -- 87
2020-01-25 19:00:00 11.2 8 Noroeste 15 Noroeste 0 -- -- 84
2020-01-25 18:00:00 12.8 9 Noroeste 14 Noroeste 0 -- -- 76
2020-01-25 17:00:00 13.3 6 Oeste 14 Noroeste 0 -- -- 76
2020-01-25 16:00:00 12.7 7 Noroeste 15 Sudoeste 0 -- -- 82
2020-01-25 15:00:00 12.4 6 Oeste 14 Oeste 0 -- -- 82
2020-01-25 14:00:00 11.3 9 Oeste 13 Oeste 0 -- -- 88
2020-01-25 13:00:00 11.2 6 Sudoeste 10 Sudoeste 0 -- -- 87
2020-01-25 12:00:00 11.1 4 Sudoeste 7 Sudeste 0 -- -- 92
2020-01-25 11:00:00 9.7 3 Sudeste 9 Este 0 -- -- 94
2020-01-25 10:00:00 9 6 Sudeste 9 Sudeste 0 -- -- 93
2020-01-25 09:00:00 8.7 5 Sudeste 15 Este 0 -- -- 93
2020-01-25 08:00:00 8.5 11 Sudeste 18 Sudeste 0 -- -- 93
2020-01-25 07:00:00 8.3 12 Sudeste 17 Sudeste 0 -- -- 94
2020-01-25 06:00:00 8.4 7 Sudeste 12 Sudeste 0 -- -- 95
2020-01-25 05:00:00 8.9 7 Sudeste 13 Sur 0 -- -- 96
2020-01-25 04:00:00 9.2 9 Sur 19 Sur 0 -- -- 96
2020-01-25 03:00:00 9 5 Sur 9 Sur 0 -- -- 97
2020-01-25 02:00:00 8.8 0 Calma 6 Sur 0 -- -- 96
2020-01-25 01:00:00 8.9 5 Sudoeste 13 Sur 0 -- -- 96
2020-01-25 00:00:00 8.9 7 Sur 15 Sudeste 1 -- -- 96
2020-01-24 23:00:00 8.9 8 Sudeste 13 Este 0.2 -- -- 94
2020-01-24 22:00:00 9 7 Sudeste 21 Sudeste 0.4 -- -- 93
2020-01-24 21:00:00 9.3 10 Este 22 Sudeste 0.6 -- -- 93
2020-01-24 20:00:00 9.9 11 Este 21 Sudeste 0.6 -- -- 93
2020-01-24 19:00:00 10.3 10 Sudeste 23 Sudeste 1.2 -- -- 93
2020-01-24 18:00:00 10.8 8 Este 21 Sudeste 0.2 -- -- 90
2020-01-24 17:00:00 11.7 8 Este 13 Sudeste 0 -- -- 86
2020-01-24 16:00:00 11.5 8 Este 13 Sudeste 0 -- -- 86
2020-01-24 15:00:00 11.6 9 Sudeste 27 Sur 0 -- -- 85
2020-01-24 14:00:00 12.7 17 Sudeste 29 Sur 0 -- -- 75
2020-01-24 13:00:00 13.4 17 Sur 30 Sudeste 0 -- -- 73
2020-01-24 12:00:00 12.8 17 Sudeste 28 Sudeste 0 -- -- 77
2020-01-24 11:00:00 11.5 14 Sudeste 23 Sudeste 0 -- -- 82
2020-01-24 10:00:00 8.9 11 Este 18 Este 0 -- -- 89
2020-01-24 09:00:00 7.5 12 Este 18 Sudeste 0 -- -- 92
2020-01-24 08:00:00 7.5 12 Este 17 Este 0 -- -- 93
2020-01-24 07:00:00 7.7 10 Este 14 Este 0 -- -- 93
2020-01-24 06:00:00 8.3 9 Este 15 Este 0 -- -- 92
2020-01-24 05:00:00 8.5 5 Sudeste 11 Este 0 -- -- 93
2020-01-24 04:00:00 9.1 8 Este 11 Este 0 -- -- 91
2020-01-24 03:00:00 9.5 5 Sudeste 14 Sudeste 0 -- -- 90
2020-01-24 02:00:00 9.1 8 Sudeste 14 Este 0 -- -- 92
2020-01-24 01:00:00 8.7 8 Sudeste 12 Sudeste 0 -- -- 91
2020-01-24 00:00:00 8.5 9 Sudeste 16 Sudeste 0 -- -- 89
2020-01-23 23:00:00 8.7 10 Sudeste 15 Sudeste 0 -- -- 90
2020-01-23 22:00:00 9 9 Sudeste 15 Sudeste 0 -- -- 88
2020-01-23 21:00:00 9.4 10 Sudeste 14 Sudeste 0 -- -- 85
2020-01-23 20:00:00 9.6 6 Sudeste 17 Sur 0 -- -- 86
2020-01-23 19:00:00 10.6 7 Sur 24 Sur 0 -- -- 83
2020-01-23 18:00:00 11.2 11 Sur 28 Sudeste 0 -- -- 80
2020-01-23 17:00:00 11.6 14 Sur 30 Sur 0 -- -- 78
2020-01-23 16:00:00 12.3 18 Sur 30 Sur 0 -- -- 77
2020-01-23 15:00:00 12.5 15 Sur 29 Sur 0 -- -- 77
2020-01-23 14:00:00 11.7 19 Sur 30 Sur 0 -- -- 82
2020-01-23 13:00:00 10.6 14 Sudeste 23 Sudeste 0 -- -- 90
2020-01-23 12:00:00 9.6 7 Sudeste 13 Sudeste 0 -- -- 95
2020-01-23 11:00:00 8.8 7 Sudeste 15 Sudeste 0.2 -- -- 95
2020-01-23 10:00:00 8.3 8 Sudeste 15 Sudeste 0 -- -- 93
2020-01-23 09:00:00 7.8 9 Sudeste 16 Sudeste 0 -- -- 93
2020-01-23 08:00:00 7.7 5 Sudeste 12 Sudeste 0 -- -- 94
2020-01-23 07:00:00 8.2 8 Sudeste 27 Sudeste 3.2 -- -- 94
2020-01-23 06:00:00 8.2 12 Sur 18 Sur 1.4 -- -- 93
2020-01-23 05:00:00 8.2 6 Sudeste 13 Sudeste 0 -- -- 92
2020-01-23 04:00:00 8 8 Sudeste 12 Sudeste 0 -- -- 93
2020-01-23 03:00:00 7.9 6 Sudeste 14 Sudeste 0 -- -- 93
2020-01-23 02:00:00 7.9 8 Sudeste 14 Este 0 -- -- 94
2020-01-23 01:00:00 7.7 7 Sudeste 16 Sudeste 0 -- -- 94
2020-01-23 00:00:00 7.8 8 Sudeste 16 Este 0 -- -- 93
2020-01-22 23:00:00 7.8 8 Este 14 Este 0 -- -- 94
2020-01-22 22:00:00 7.6 8 Este 16 Este 0 -- -- 96
2020-01-22 21:00:00 7.1 11 Nordeste 16 Nordeste 0.8 -- -- 96
2020-01-22 20:00:00 7 7 Este 10 Este 1.8 -- -- 95
2020-01-22 19:00:00 7.2 7 Este 14 Sudeste 0.6 -- -- 93
2020-01-22 18:00:00 7.3 9 Sudeste 28 Sudeste 0.2 -- -- 91
2020-01-22 17:00:00 8.3 14 Sudeste 25 Sudeste 0 -- -- 88
2020-01-22 16:00:00 8.7 16 Sudeste 23 Sudeste 0 -- -- 86
2020-01-22 15:00:00 8.7 12 Sudeste 20 Sudeste 0 -- -- 88
2020-01-22 14:00:00 9 12 Sudeste 20 Sudeste 0 -- -- 80
2020-01-22 13:00:00 9.4 12 Sudeste 23 Sudeste 0 -- -- 77
2020-01-22 12:00:00 8.9 11 Este 19 Este 0 -- -- 81
2020-01-22 11:00:00 7.6 7 Este 14 Este 0 -- -- 88
2020-01-22 10:00:00 6.7 8 Nordeste 12 Nordeste 0 -- -- 91
2020-01-22 09:00:00 6.6 7 Nordeste 14 Este 0 -- -- 87
2020-01-22 08:00:00 6.9 9 Este 17 Nordeste 0 -- -- 83
2020-01-22 07:00:00 6.6 12 Este 21 Nordeste 0 -- -- 83
2020-01-22 06:00:00 5.9 12 Nordeste 19 Nordeste 0 -- -- 85
2020-01-22 05:00:00 6.7 10 Nordeste 23 Este 0 -- -- 82
2020-01-22 04:00:00 7.4 13 Nordeste 24 Nordeste 0 -- -- 79
2020-01-22 03:00:00 8 14 Nordeste 22 Nordeste 0 -- -- 78
2020-01-22 02:00:00 8.1 7 Nordeste 15 Nordeste 0 -- -- 77
2020-01-22 01:00:00 7.9 5 Nordeste 17 Nordeste 0 -- -- 77
2020-01-22 00:00:00 7.7 12 Nordeste 19 Nordeste 0 -- -- 76
2020-01-21 23:00:00 6.7 9 Nordeste 16 Norte 0 -- -- 79
2020-01-21 22:00:00 8.6 7 Nordeste 32 Este 0 -- -- 71
2020-01-21 21:00:00 9.4 12 Este 34 Este 0 -- -- 66
2020-01-21 20:00:00 9.9 18 Este 34 Este 0 -- -- 64
2020-01-21 19:00:00 10.1 14 Nordeste 30 Nordeste 0 -- -- 63
2020-01-21 18:00:00 10.7 9 Este 28 Nordeste 0 -- -- 61
2020-01-21 17:00:00 11.3 15 Este 28 Nordeste 0 -- -- 58
2020-01-21 16:00:00 11.9 13 Nordeste 37 Este 0 -- -- 57
2020-01-21 15:00:00 11.9 18 Este 44 Nordeste 0 -- -- 56
2020-01-21 14:00:00 11.1 27 Nordeste 44 Nordeste 0 -- -- 58
2020-01-21 13:00:00 10.8 21 Nordeste 39 Este 0 -- -- 56
2020-01-21 12:00:00 10.3 22 Este 39 Nordeste 0 -- -- 57
2020-01-21 11:00:00 7.6 22 Nordeste 33 Nordeste 0 -- -- 67
2020-01-21 10:00:00 6.6 14 Nordeste 31 Nordeste 0 -- -- 68
2020-01-21 09:00:00 5.5 23 Nordeste 34 Este 0 -- -- 69
2020-01-21 08:00:00 5.7 24 Nordeste 35 Nordeste 0 -- -- 68
2020-01-21 07:00:00 5.4 19 Nordeste 37 Nordeste 0 -- -- 69
2020-01-21 06:00:00 5.5 20 Nordeste 36 Nordeste 0 -- -- 69
2020-01-21 05:00:00 5.9 19 Nordeste 33 Nordeste 0 -- -- 67
2020-01-21 04:00:00 5.7 10 Este 34 Nordeste 0 -- -- 68
2020-01-21 03:00:00 5.7 19 Nordeste 34 Nordeste 0 -- -- 67
2020-01-21 02:00:00 6.1 19 Nordeste 33 Nordeste 0 -- -- 65
2020-01-21 01:00:00 5.9 11 Nordeste 28 Nordeste 0 -- -- 65
2020-01-21 00:00:00 5.7 12 Nordeste 31 Nordeste 0 -- -- 67
2020-01-20 23:00:00 5.8 15 Nordeste 28 Nordeste 0 -- -- 67
2020-01-20 22:00:00 5.8 15 Nordeste 33 Nordeste 0 -- -- 69
2020-01-20 21:00:00 6 17 Nordeste 36 Este 0 -- -- 69
2020-01-20 20:00:00 6.7 23 Este 48 Este 0 -- -- 62
2020-01-20 19:00:00 6.9 28 Este 63 Este 0 -- -- 61
2020-01-20 18:00:00 7.8 39 Este 63 Nordeste 0 -- -- 56
2020-01-20 17:00:00 9 33 Este 69 Este 0 -- -- 52
2020-01-20 16:00:00 9.2 42 Este 73 Nordeste 0 -- -- 51
2020-01-20 15:00:00 9.7 42 Este 68 Nordeste 0 -- -- 47
2020-01-20 14:00:00 10 38 Nordeste 61 Este 0 -- -- 42
2020-01-20 13:00:00 9.1 28 Nordeste 52 Nordeste 0 -- -- 44
2020-01-20 12:00:00 8 26 Nordeste 45 Nordeste 0 -- -- 45
2020-01-20 11:00:00 6.8 23 Nordeste 38 Este 0 -- -- 47
2020-01-20 10:00:00 5.5 20 Nordeste 36 Nordeste 0 -- -- 55
2020-01-20 09:00:00 4.5 22 Nordeste 43 Nordeste 0 -- -- 56
2020-01-20 08:00:00 5 27 Nordeste 40 Nordeste 0 -- -- 54
2020-01-20 07:00:00 5 22 Nordeste 41 Nordeste 0 -- -- 55
2020-01-20 06:00:00 5.3 23 Nordeste 36 Nordeste 0 -- -- 52
2020-01-20 05:00:00 5.1 26 Nordeste 40 Nordeste 0 -- -- 54
2020-01-20 04:00:00 5.5 25 Nordeste 42 Nordeste 0 -- -- 51
2020-01-20 03:00:00 5.4 27 Nordeste 46 Nordeste 0 -- -- 51
2020-01-20 02:00:00 5.6 23 Nordeste 40 Nordeste 0 -- -- 51
2020-01-20 01:00:00 6 17 Nordeste 35 Nordeste 0 -- -- 54
2020-01-20 00:00:00 6.4 15 Nordeste 37 Nordeste 0 -- -- 53
2020-01-19 23:00:00 7.1 28 Nordeste 50 Nordeste 0 -- -- 53
2020-01-19 22:00:00 7.7 29 Nordeste 41 Nordeste 0 -- -- 53
2020-01-19 21:00:00 8.7 23 Nordeste 43 Nordeste 0 -- -- 52
2020-01-19 20:00:00 9.6 24 Nordeste 39 Nordeste 0 -- -- 50
2020-01-19 19:00:00 10.3 19 Nordeste 43 Nordeste 0 -- -- 50
2020-01-19 18:00:00 11.7 26 Nordeste 47 Nordeste 0 -- -- 47
2020-01-19 17:00:00 13.1 27 Nordeste 48 Nordeste 0 -- -- 50
2020-01-19 16:00:00 13.3 28 Nordeste 57 Nordeste 0 -- -- 50
2020-01-19 15:00:00 13.3 37 Nordeste 61 Nordeste 0 -- -- 49
2020-01-19 14:00:00 13.1 33 Nordeste 54 Nordeste 0 -- -- 60
2020-01-19 13:00:00 12.9 26 Nordeste 44 Norte 0 -- -- 62
2020-01-19 12:00:00 11.7 20 Nordeste 32 Norte 0 -- -- 74
2020-01-19 11:00:00 10.4 21 Norte 30 Norte 0 -- -- 83
2020-01-19 10:00:00 8.9 8 Norte 21 Norte 0 -- -- 93
2020-01-19 09:00:00 8.1 12 Norte 24 Norte 0 -- -- 94
2020-01-19 08:00:00 8.8 15 Norte 23 Norte 0 -- -- 92
2020-01-19 07:00:00 8.7 12 Norte 19 Norte 0 -- -- 93
2020-01-19 06:00:00 8.7 12 Noroeste 18 Noroeste 0 -- -- 91
2020-01-19 05:00:00 8.7 8 Noroeste 18 Norte 0 -- -- 91
2020-01-19 04:00:00 8.4 8 Noroeste 17 Norte 0 -- -- 91
2020-01-19 03:00:00 8.8 11 Norte 19 Noroeste 0 -- -- 91
2020-01-19 02:00:00 9.6 9 Norte 34 Noroeste 0 -- -- 90
2020-01-19 01:00:00 11 20 Noroeste 34 Noroeste 0 -- -- 86
2020-01-19 00:00:00 11.4 18 Noroeste 28 Oeste 0 -- -- 89
2020-01-18 23:00:00 11.5 8 Oeste 26 Noroeste 0 -- -- 90
2020-01-18 22:00:00 12.3 17 Noroeste 33 Noroeste 0 -- -- 87
2020-01-18 21:00:00 12.7 15 Oeste 22 Oeste 0 -- -- 93
2020-01-18 20:00:00 13.1 9 Oeste 24 Oeste 0 -- -- 89
2020-01-18 19:00:00 14.6 13 Oeste 23 Oeste 0 -- -- 82
2020-01-18 18:00:00 16.4 16 Oeste 28 Noroeste 0 -- -- 78
2020-01-18 17:00:00 16.8 17 Oeste 30 Oeste 0 -- -- 80
2020-01-18 16:00:00 17.3 22 Oeste 31 Oeste 0 -- -- 80
2020-01-18 15:00:00 15.6 15 Oeste 27 Oeste 0 -- -- 98
2020-01-18 14:00:00 14.7 17 Sudoeste 26 Sudoeste 0 -- -- 99
2020-01-18 13:00:00 14 13 Oeste 31 Sudoeste 0.4 -- -- 98
2020-01-18 12:00:00 13.3 22 Sudoeste 31 Sudoeste 0.4 -- -- 98
2020-01-18 11:00:00 12.9 19 Sudoeste 33 Sudoeste 0 -- -- 98
2020-01-18 10:00:00 12.6 22 Sudoeste 41 Sudoeste 2.8 -- -- 98
2020-01-18 09:00:00 12 22 Sudoeste 38 Sudoeste 1.6 -- -- 97
2020-01-18 08:00:00 11.5 13 Sur 33 Sudoeste 5.8 -- -- 97
2020-01-18 07:00:00 11.4 9 Sudoeste 18 Sur 1 -- -- 95
2020-01-18 06:00:00 11.1 9 Sur 16 Sur 0.4 -- -- 92
2020-01-18 05:00:00 10.8 3 Sudoeste 13 Sur 0 -- -- 88
2020-01-18 04:00:00 11 6 Sur 18 Sur 0 -- -- 87
2020-01-18 03:00:00 11 10 Sudeste 17 Sudeste 0 -- -- 87
2020-01-18 02:00:00 11 5 Sur 21 Sudeste 0 -- -- 85
2020-01-18 01:00:00 10.8 9 Sudeste 16 Este 0 -- -- 86
2020-01-18 00:00:00 10.4 5 Sudeste 13 Sudeste 0 -- -- 88
2020-01-17 23:00:00 10.2 5 Sudeste 8 Sudeste 0 -- -- 92
2020-01-17 22:00:00 10.7 2 Este 15 Este 0 -- -- 91
2020-01-17 21:00:00 11 6 Este 10 Este 0 -- -- 92
2020-01-17 20:00:00 11.4 4 Nordeste 9 Norte 0 -- -- 91
2020-01-17 19:00:00 12.4 8 Norte 10 Norte 0 -- -- 88
2020-01-17 18:00:00 14.5 5 Norte 8 Norte 0 -- -- 78
2020-01-17 17:00:00 15.2 5 Norte 13 Noroeste 0 -- -- 78
2020-01-17 16:00:00 16.2 8 Noroeste 14 Noroeste 0 -- -- 72
2020-01-17 15:00:00 16.2 5 Noroeste 10 Sudoeste 0 -- -- 67
2020-01-17 14:00:00 15 3 Oeste 12 Oeste 0 -- -- 76
2020-01-17 13:00:00 14 4 Oeste 11 Oeste 0 -- -- 79
2020-01-17 12:00:00 13.3 5 Sudoeste 9 Sudoeste 0 -- -- 86
2020-01-17 11:00:00 12 5 Sudoeste 8 Sur 0 -- -- 95
2020-01-17 10:00:00 11.1 2 Sudoeste 4 Sur 0 -- -- 97
2020-01-17 09:00:00 10.3 0 Calma 3 Sudeste 0 -- -- 97
2020-01-17 08:00:00 10.6 0 Calma 6 Oeste 0 -- -- 97
2020-01-17 07:00:00 10.7 6 Oeste 11 Noroeste 0 -- -- 98
2020-01-17 06:00:00 10.9 6 Oeste 10 Noroeste 0 -- -- 97
2020-01-17 05:00:00 11.1 4 Noroeste 12 Oeste 0 -- -- 97
2020-01-17 04:00:00 11.5 8 Oeste 18 Sudoeste 0 -- -- 97
2020-01-17 03:00:00 11.9 6 Sudoeste 13 Sudoeste 0 -- -- 96
2020-01-17 02:00:00 12 5 Sudoeste 13 Oeste 0 -- -- 96
2020-01-17 01:00:00 11.9 7 Noroeste 22 Oeste 0.2 -- -- 95
2020-01-17 00:00:00 12.1 11 Noroeste 25 Sudoeste 0.4 -- -- 93
2020-01-16 23:00:00 12.5 18 Sudoeste 34 Sur 1 -- -- 91
2020-01-16 22:00:00 13.2 20 Sudoeste 35 Sudoeste 0 -- -- 85
2020-01-16 21:00:00 12.8 21 Sudoeste 33 Sudoeste 0 -- -- 83
2020-01-16 20:00:00 12.9 21 Sudoeste 30 Sudoeste 0 -- -- 76
2020-01-16 19:00:00 13.5 18 Sudoeste 29 Sudoeste 0 -- -- 70
2020-01-16 18:00:00 14.7 23 Sudoeste 37 Sudoeste 0 -- -- 61
2020-01-16 17:00:00 15.7 19 Sudoeste 41 Sudoeste 0 -- -- 59
2020-01-16 16:00:00 16.7 25 Sudoeste 43 Sudoeste 0 -- -- 58
2020-01-16 15:00:00 16.3 25 Sudoeste 42 Sudoeste 0 -- -- 59
2020-01-16 14:00:00 16.3 27 Sudoeste 39 Sudoeste 0 -- -- 59
2020-01-16 13:00:00 15.3 23 Sudoeste 34 Sudoeste 0 -- -- 70
2020-01-16 12:00:00 14.4 19 Sudoeste 26 Sudoeste 0 -- -- 78
2020-01-16 11:00:00 12.1 11 Sur -- -- -- -- -- 87
2020-01-16 10:00:00 10.4 16 Sudeste 25 Sudeste 0 -- -- 92
2020-01-16 09:00:00 9 12 Sudeste 16 Sudeste 0 -- -- 95
2020-01-16 08:00:00 8.8 8 Sudeste 14 Sudeste 0 -- -- 95
2020-01-16 07:00:00 9 11 Sudeste 15 Sudeste 0 -- -- 95
2020-01-16 06:00:00 9.4 8 Sur 12 Sudeste 0 -- -- 94
2020-01-16 05:00:00 10.3 9 Sudeste 13 Sudeste 0 -- -- 93
2020-01-16 04:00:00 11.2 6 Sur 17 Sur 0 -- -- 93
2020-01-16 03:00:00 11.3 9 Sur 18 Sur 0 -- -- 94
2020-01-16 02:00:00 11.4 9 Sur 13 Sur 0 -- -- 94
2020-01-16 01:00:00 12.3 7 Sur 21 Sur 0 -- -- 91
2020-01-16 00:00:00 12.9 11 Sur 23 Sur 0 -- -- 91
2020-01-15 23:00:00 12.7 10 Sur 19 Sur 0 -- -- 91
2020-01-15 22:00:00 12.5 12 Sur 18 Sur 0 -- -- 91
2020-01-15 21:00:00 12.5 11 Sudeste 20 Sur 0 -- -- 89
2020-01-15 20:00:00 13.6 12 Sur 19 Sudeste 0 -- -- 87
2020-01-15 19:00:00 14 10 Sur 21 Sur 0 -- -- 86
2020-01-15 18:00:00 14.7 13 Sur 26 Sudoeste 0 -- -- 84
2020-01-15 17:00:00 15.4 17 Sudoeste 31 Sur 0 -- -- 81
2020-01-15 16:00:00 15.9 22 Sudoeste 33 Sudoeste 0 -- -- 78
2020-01-15 15:00:00 15.9 19 Sudoeste 33 Sudoeste 0 -- -- 81
2020-01-15 14:00:00 15 23 Sudoeste 33 Sudoeste 0 -- -- 84
2020-01-15 13:00:00 15 23 Sudoeste 43 Sudoeste 0 -- -- 80
2020-01-15 12:00:00 14.2 23 Sudoeste 35 Sudoeste 0 -- -- 84
2020-01-15 11:00:00 13.3 18 Sur 36 Sur 0 -- -- 85
2020-01-15 10:00:00 12.5 21 Sur 34 Sudoeste 0 -- -- 86
2020-01-15 09:00:00 12.1 19 Sur 34 Sur 0 -- -- 85
2020-01-15 08:00:00 11.7 16 Sur 28 Sur 0 -- -- 85
2020-01-15 07:00:00 11.6 17 Sur 34 Sur 0 -- -- 83
2020-01-15 06:00:00 11.5 21 Sur 35 Sur 0 -- -- 82
2020-01-15 05:00:00 11.1 18 Sur 32 Sur 0 -- -- 82
2020-01-15 04:00:00 10.9 21 Sur 34 Sur 0 -- -- 82
2020-01-15 03:00:00 10.4 16 Sur 27 Sur 0 -- -- 83
2020-01-15 02:00:00 10.1 13 Sur 26 Sur 0 -- -- 84
2020-01-15 01:00:00 10.3 12 Sur 22 Sur 0 -- -- 84
2020-01-15 00:00:00 10.3 14 Sur 23 Sur 0 -- -- 85
2020-01-14 23:00:00 9.7 10 Sudeste 18 Sudeste 0 -- -- 87
2020-01-14 22:00:00 9.9 11 Sudeste 23 Sur 0 -- -- 86
2020-01-14 21:00:00 10.5 12 Sur 23 Sur 0 -- -- 83
2020-01-14 20:00:00 10.7 13 Sur 21 Sur 0 -- -- 81
2020-01-14 19:00:00 10.9 14 Sur 29 Sur 0 -- -- 79
2020-01-14 18:00:00 12.2 17 Sur 30 Sur 0 -- -- 75
2020-01-14 17:00:00 12.3 20 Sudoeste 34 Sudoeste 0 -- -- 75
2020-01-14 16:00:00 12.8 22 Sudoeste 30 Sudoeste 0 -- -- 70
2020-01-14 15:00:00 -- -- -- -- -- -- -- -- --
2020-01-14 14:00:00 9.9 5 Sudoeste 13 Oeste 0.2 -- -- 87
2020-01-14 13:00:00 10.3 7 Sur 13 Sur 0 -- -- 73
2020-01-14 12:00:00 9.4 6 Sur 13 Sur 0 -- -- 75
2020-01-14 11:00:00 7.8 6 Sudeste 18 Sudeste 0 -- -- 80
2020-01-14 10:00:00 5.4 7 Sudeste 16 Sudeste 0 -- -- 86
2020-01-14 09:00:00 4.4 9 Sudeste 16 Sudeste 0 -- -- 90
2020-01-14 08:00:00 2.9 4 Sudeste 8 Este 0 -- -- 91
2020-01-14 07:00:00 3.4 3 Sudeste 6 Sur 0 -- -- 89
2020-01-14 06:00:00 5 6 Sudeste 21 Sudeste 0 -- -- 84
2020-01-14 05:00:00 5 11 Sudeste 15 Sudeste 0 -- -- 84
2020-01-14 04:00:00 5.1 5 Sudeste 17 Sudeste 0 -- -- 83
2020-01-14 03:00:00 4.9 4 Sudeste 11 Sudeste 0 -- -- 84
2020-01-14 02:00:00 4.3 5 Este 15 Este 0 -- -- 84
2020-01-14 01:00:00 4.9 10 Sudeste 18 Sudeste 0 -- -- 83
2020-01-14 00:00:00 5.1 5 Sudeste 9 Sudeste 0 -- -- 82
2020-01-13 23:00:00 5.4 3 Sudeste 10 Sudeste 0 -- -- 81
2020-01-13 22:00:00 6 2 Sudeste 2 Sudeste 0 -- -- 78
2020-01-13 21:00:00 7.2 0 Calma 7 Sudoeste 0 -- -- 70
2020-01-13 20:00:00 8.9 3 Sudoeste 6 Oeste 0 -- -- 62
2020-01-13 19:00:00 10.3 5 Oeste 9 Oeste 0 -- -- 59
2020-01-13 18:00:00 12 5 Oeste 12 Sudoeste 0 -- -- 62
2020-01-13 17:00:00 12.7 10 Sudoeste 21 Oeste 0 -- -- 61
2020-01-13 16:00:00 13 9 Oeste 15 Sudoeste 0 -- -- 61
2020-01-13 15:00:00 12.4 8 Oeste 13 Oeste 0 -- -- 63
2020-01-13 14:00:00 12 8 Oeste 14 Oeste 0 -- -- 68
2020-01-13 13:00:00 11.4 6 Oeste 12 Sudoeste 0 -- -- 67
2020-01-13 12:00:00 9.9 5 Sudoeste 9 Sur 0 -- -- 68
2020-01-13 11:00:00 7.9 5 Sudeste 14 Sudeste 0 -- -- 72
2020-01-13 10:00:00 4.2 4 Sur 10 Sudeste 0 -- -- 84
2020-01-13 09:00:00 1.9 5 Sudeste 11 Este 0 -- -- 88
2020-01-13 08:00:00 1 0 Calma 3 Norte 0 -- -- 88
2020-01-13 07:00:00 2.2 2 Norte 3 Norte 0 -- -- 87
2020-01-13 06:00:00 1.9 0 Calma 3 Norte 0 -- -- 86
2020-01-13 05:00:00 2.9 0 Calma 6 Este 0 -- -- 81
2020-01-13 04:00:00 4.2 0 Calma 13 Este 0 -- -- 76
2020-01-13 03:00:00 4.5 8 Este 13 Este 0 -- -- 76
2020-01-13 02:00:00 4.9 7 Este 14 Este 0 -- -- 75
2020-01-13 01:00:00 5.3 9 Sudeste 14 Sudeste 0 -- -- 76
2020-01-13 00:00:00 5.5 0 Calma 13 Este 0 -- -- 75
2020-01-12 23:00:00 7.2 12 Este 14 Este 0 -- -- 70
2020-01-12 22:00:00 8.1 12 Este 15 Este 0 -- -- 67
2020-01-12 21:00:00 8.3 10 Este 13 Nordeste 0 -- -- 66
2020-01-12 20:00:00 8.4 7 Nordeste 8 Nordeste 0 -- -- 64
2020-01-12 19:00:00 9.6 5 Nordeste 6 Nordeste 0 -- -- 58
2020-01-12 18:00:00 13.4 4 Nordeste 9 Nordeste 0 -- -- 47
2020-01-12 17:00:00 14.4 5 Norte 14 Norte 0 -- -- 46
2020-01-12 16:00:00 14.7 6 Norte 15 Norte 0 -- -- 50
2020-01-12 15:00:00 14.6 8 Noroeste 14 Noroeste 0 -- -- 51
2020-01-12 14:00:00 13.6 6 Noroeste 11 Norte 0 -- -- 60
2020-01-12 13:00:00 12.4 4 Oeste 8 Oeste 0 -- -- 64
2020-01-12 12:00:00 10.2 3 Sudoeste 7 Sudoeste 0 -- -- 73
2020-01-12 11:00:00 7.7 2 Sudoeste 4 Sudoeste 0 -- -- 79
2020-01-12 10:00:00 4.5 0 Calma 4 Norte 0 -- -- 86
2020-01-12 09:00:00 1.9 2 Norte 8 Norte 0 -- -- 90
2020-01-12 08:00:00 2.1 0 Calma 5 Sudeste 0 -- -- 88
2020-01-12 07:00:00 2.4 0 Calma 5 Este 0 -- -- 88
2020-01-12 06:00:00 2.5 0 Calma 4 Este 0 -- -- 84
2020-01-12 05:00:00 3.9 4 Este 9 Este 0 -- -- 82
2020-01-12 04:00:00 3.8 4 Este 8 Este 0 -- -- 83
2020-01-12 03:00:00 4 0 Calma 7 Este 0 -- -- 82
2020-01-12 02:00:00 4.7 5 Nordeste 7 Nordeste 0 -- -- 81
2020-01-12 01:00:00 5.3 0 Calma 4 Este 0 -- -- 79
2020-01-12 00:00:00 5.6 2 Este 6 Este 0 -- -- 78
2020-01-11 23:00:00 7.1 10 Este 18 Este 0 -- -- 73
2020-01-11 22:00:00 8.4 13 Este 21 Este 0 -- -- 69
2020-01-11 21:00:00 8.8 14 Este 20 Este 0 -- -- 67
2020-01-11 20:00:00 9.4 11 Este 17 Este 0 -- -- 65
2020-01-11 19:00:00 -- -- -- -- -- -- -- -- --
2020-01-11 18:00:00 12.6 9 Nordeste 18 Nordeste 0 -- -- 56
2020-01-11 17:00:00 14.8 8 Este 18 Este 0 -- -- 43
2020-01-11 16:00:00 15.3 8 Sudeste 22 Nordeste 0 -- -- 42
2020-01-11 15:00:00 14.2 12 Este 22 Nordeste 0 -- -- 48
2020-01-11 14:00:00 13.8 13 Nordeste 21 Este 0 -- -- 52
2020-01-11 13:00:00 12.6 12 Nordeste 19 Nordeste 0 -- -- 55
2020-01-11 12:00:00 11.3 9 Nordeste 15 Este 0 -- -- 58
2020-01-11 11:00:00 9.5 4 Este 10 Nordeste 0 -- -- 67
2020-01-11 10:00:00 5.9 3 Nordeste 13 Nordeste 0 -- -- 77
2020-01-11 09:00:00 4.5 0 Calma 15 Este 0 -- -- 78
2020-01-11 08:00:00 5.2 11 Este 21 Este 0 -- -- 76
2020-01-11 07:00:00 4.7 14 Nordeste 19 Este 0 -- -- 79
2020-01-11 06:00:00 6.1 12 Este 22 Este 0 -- -- 73
2020-01-11 05:00:00 6.5 15 Este 22 Nordeste 0 -- -- 73
2020-01-11 04:00:00 5.9 14 Este 22 Este 0 -- -- 77
2020-01-11 03:00:00 5.6 16 Nordeste 21 Nordeste 0 -- -- 79
2020-01-11 02:00:00 5 15 Este 17 Este 0 -- -- 81
2020-01-11 01:00:00 5.9 11 Nordeste 15 Nordeste 0 -- -- 78
2020-01-11 00:00:00 7 11 Nordeste 17 Nordeste 0 -- -- 74
2020-01-10 23:00:00 7.6 10 Nordeste 18 Nordeste 0 -- -- 74
2020-01-10 22:00:00 7.9 11 Nordeste 15 Nordeste 0 -- -- 80
2020-01-10 21:00:00 8.1 10 Nordeste 15 Nordeste 0 -- -- 82
2020-01-10 20:00:00 9.8 12 Nordeste 21 Nordeste 0 -- -- 75
2020-01-10 19:00:00 9.7 13 Nordeste 20 Nordeste 0 -- -- 76
2020-01-10 18:00:00 11.5 15 Nordeste 26 Este 0 -- -- 63
2020-01-10 17:00:00 12.3 17 Nordeste 31 Este 0 -- -- 60
2020-01-10 16:00:00 12.2 18 Nordeste 29 Nordeste 0 -- -- 63
2020-01-10 15:00:00 11.8 15 Nordeste 29 Nordeste 0 -- -- 64
2020-01-10 14:00:00 11 16 Nordeste 29 Nordeste 0 -- -- 65
2020-01-10 13:00:00 10.4 20 Nordeste 32 Este 0 -- -- 66
2020-01-10 12:00:00 9.4 17 Nordeste 26 Norte 0 -- -- 70
2020-01-10 11:00:00 7.3 11 Norte 27 Norte 0 -- -- 83
2020-01-10 10:00:00 5.3 11 Norte 20 Norte 0 -- -- 91
2020-01-10 09:00:00 4.4 13 Norte 22 Norte 0 -- -- 93
2020-01-10 08:00:00 4.6 12 Nordeste 18 Norte 0 -- -- 94
2020-01-10 07:00:00 4.4 7 Nordeste 11 Norte 0 -- -- 96
2020-01-10 06:00:00 5 7 Nordeste 13 Norte 0 -- -- 95
2020-01-10 05:00:00 5.6 8 Norte 18 Norte 0 -- -- 94
2020-01-10 04:00:00 6.8 14 Norte 21 Norte 0 -- -- 94
2020-01-10 03:00:00 7.2 10 Norte 16 Norte 0 -- -- 96
2020-01-10 02:00:00 7.9 8 Norte 14 Norte 0 -- -- 95
2020-01-10 01:00:00 8.7 9 Norte 15 Norte 0 -- -- 95
2020-01-10 00:00:00 9.8 6 Norte 10 Norte 0 -- -- 95
2020-01-09 23:00:00 11.2 3 Noroeste 8 Noroeste 0 -- -- 95
2020-01-09 22:00:00 11.3 2 Oeste 5 Oeste 0 -- -- 90
2020-01-09 21:00:00 11.2 0 Calma 5 Norte 0 -- -- 88
2020-01-09 20:00:00 11.2 0 Calma 10 Noroeste 0 -- -- 84
2020-01-09 19:00:00 11.8 7 Oeste 12 Oeste 0 -- -- 76
2020-01-09 18:00:00 13.2 3 Sudoeste 8 Oeste 0 -- -- 71
2020-01-09 17:00:00 14.3 4 Noroeste 13 Noroeste 0 -- -- 64
2020-01-09 16:00:00 13.9 9 Noroeste 15 Oeste 0 -- -- 62
2020-01-09 15:00:00 12.7 9 Oeste 12 Oeste 0 -- -- 71
2020-01-09 14:00:00 11.5 4 Oeste 14 Oeste 0 -- -- 76
2020-01-09 13:00:00 9.7 9 Oeste 14 Oeste 0 -- -- 84
2020-01-09 12:00:00 8.2 7 Oeste 12 Oeste 0 -- -- 89
2020-01-09 11:00:00 7.5 3 Sudoeste 8 Sudeste 0 -- -- 88
2020-01-09 10:00:00 4.3 2 Sudeste 6 Sur 0 -- -- 97
2020-01-09 09:00:00 2.4 0 Calma 4 Sudeste 0 -- -- 96
2020-01-09 08:00:00 2.7 0 Calma 5 Este 0 -- -- 95
2020-01-09 07:00:00 2 3 Este 8 Sudeste 0 -- -- 96
2020-01-09 06:00:00 3.2 3 Nordeste 8 Norte 0 -- -- 95
2020-01-09 05:00:00 3.6 5 Norte 8 Noroeste 0 -- -- 94
2020-01-09 04:00:00 4.6 0 Calma 9 Sudeste 0 -- -- 94
2020-01-09 03:00:00 4 5 Sudeste 13 Sudeste 0 -- -- 91
2020-01-09 02:00:00 5 0 Calma 4 Nordeste 0 -- -- 90
2020-01-09 01:00:00 5.8 2 Este 6 Nordeste 0 -- -- 88
2020-01-09 00:00:00 7.3 3 Norte 13 Nordeste 0 -- -- 83
2020-01-08 23:00:00 8.2 8 Nordeste 14 Nordeste 0 -- -- 81
2020-01-08 22:00:00 8 3 Norte 6 Oeste 0 -- -- 78
2020-01-08 21:00:00 10.1 3 Este 6 Nordeste 0 -- -- 71
2020-01-08 20:00:00 10.4 5 Nordeste 8 Nordeste 0 -- -- 73
2020-01-08 19:00:00 11.2 6 Nordeste 9 Norte 0 -- -- 68
2020-01-08 18:00:00 14 5 Norte 9 Norte 0 -- -- 64
2020-01-08 17:00:00 15.1 8 Norte 12 Oeste 0 -- -- 67
2020-01-08 16:00:00 14.8 8 Oeste 11 Oeste 0 -- -- 70
2020-01-08 15:00:00 14 7 Oeste 10 Oeste 0 -- -- 73
2020-01-08 14:00:00 12.8 6 Oeste 10 Oeste 0 -- -- 77
2020-01-08 13:00:00 10.3 6 Oeste 9 Oeste 0 -- -- 82
2020-01-08 12:00:00 9.7 3 Sudoeste 5 Sudoeste 0 -- -- 80
2020-01-08 11:00:00 7.5 3 Sur 5 Sur 0 -- -- 84
2020-01-08 10:00:00 4.6 0 Calma 7 Norte 0 -- -- 91
2020-01-08 09:00:00 3.3 3 Norte 4 Norte 0 -- -- 93
2020-01-08 08:00:00 2.6 0 Calma 5 Nordeste 0 -- -- 93
2020-01-08 07:00:00 3.6 0 Calma 5 Norte 0 -- -- 92
2020-01-08 06:00:00 3.6 0 Calma 7 Este 0 -- -- 89
2020-01-08 05:00:00 5.3 0 Calma 3 Este 0 -- -- 89
2020-01-08 04:00:00 4.3 0 Calma 7 Este 0 -- -- 89
2020-01-08 03:00:00 -- -- -- -- -- -- -- -- --
2020-01-08 02:00:00 6.2 3 Nordeste 4 Este 0 -- -- 85
2020-01-08 01:00:00 7.5 2 Este 11 Este 0 -- -- 81
2020-01-08 00:00:00 7.9 4 Nordeste 16 Este 0 -- -- 81
2020-01-07 23:00:00 8.4 11 Este 16 Este 0 -- -- 81
2020-01-07 22:00:00 9.1 8 Nordeste 14 Nordeste 0 -- -- 79
2020-01-07 21:00:00 9.6 9 Este 13 Nordeste 0 -- -- 77
2020-01-07 20:00:00 10.8 9 Nordeste 19 Nordeste 0 -- -- 75
2020-01-07 19:00:00 11.3 12 Nordeste 15 Norte 0 -- -- 79
2020-01-07 18:00:00 14.6 12 Norte 15 Norte 0 -- -- 73
2020-01-07 17:00:00 16.9 5 Norte 12 Nordeste 0 -- -- 57
2020-01-07 16:00:00 16.6 6 Norte 13 Noroeste 0 -- -- 58
2020-01-07 15:00:00 16.3 5 Nordeste 10 Norte 0 -- -- 63
2020-01-07 14:00:00 14.4 7 Noroeste 10 Oeste 0 -- -- 69
2020-01-07 13:00:00 12.5 4 Oeste 8 Noroeste 0 -- -- 79
2020-01-07 12:00:00 10.7 3 Oeste 7 Sur 0 -- -- 78
2020-01-07 11:00:00 8.6 2 Sudeste 4 Sur 0 -- -- 82
2020-01-07 10:00:00 4.4 0 Calma 4 Sur 0 -- -- 94
2020-01-07 09:00:00 2.7 0 Calma 7 Norte 0 -- -- 93
2020-01-07 08:00:00 3.1 3 Sudeste 8 Este 0 -- -- 92
2020-01-07 07:00:00 4.4 0 Calma 12 Este 0 -- -- 86
2020-01-07 06:00:00 5.6 8 Este 13 Este 0 -- -- 88
2020-01-07 05:00:00 4.6 4 Este 15 Este 0 -- -- 88
2020-01-07 04:00:00 3.8 0 Calma 5 Este 0 -- -- 92
2020-01-07 03:00:00 5 0 Calma 3 Norte 0 -- -- 89
2020-01-07 02:00:00 5.9 3 Nordeste 6 Nordeste 0 -- -- 89
2020-01-07 01:00:00 6.5 2 Nordeste 6 Este 0 -- -- 89
2020-01-07 00:00:00 6.7 4 Este 12 Este 0 -- -- 88
2020-01-06 23:00:00 7.3 5 Este 16 Este 0 -- -- 86
2020-01-06 22:00:00 8.1 10 Este 18 Este 0 -- -- 86
2020-01-06 21:00:00 9.9 13 Este 18 Este 0 -- -- 79
2020-01-06 20:00:00 10 12 Nordeste 15 Este 0 -- -- 80
2020-01-06 19:00:00 10.9 11 Nordeste 15 Nordeste 0 -- -- 79
2020-01-06 18:00:00 13.3 11 Norte 21 Norte 0 -- -- 72
2020-01-06 17:00:00 15.2 14 Norte 19 Norte 0 -- -- 68
2020-01-06 16:00:00 15.9 9 Noroeste 14 Oeste 0 -- -- 67
2020-01-06 15:00:00 15.7 3 Nordeste 13 Noroeste 0 -- -- 64
2020-01-06 14:00:00 14.6 4 Sudoeste 8 Sudoeste 0 -- -- 68
2020-01-06 13:00:00 11.9 5 Oeste 9 Noroeste 0 -- -- 77
2020-01-06 12:00:00 10.4 4 Sudoeste 7 Sudoeste 0 -- -- 80
2020-01-06 11:00:00 7.8 4 Sudeste 9 Este 0 -- -- 87
2020-01-06 10:00:00 5.3 0 Calma 4 Nordeste 0 -- -- 96